sensor_id;sensor_type;location;lat;lon;timestamp;P1;durP1;ratioP1;P2;durP2;ratioP2
46713;SDS011;32445;51.376;10.874;2024-02-15T00:03:00;5.40;;;3.40;;
46713;SDS011;32445;51.376;10.874;2024-02-15T00:08:00;5.70;;;3.53;;
46713;SDS011;32445;51.376;10.874;2024-02-15T00:13:01;8.10;;;4.30;;
46713;SDS011;32445;51.376;10.874;2024-02-15T00:18:02;6.40;;;4.50;;
46713;SDS011;32445;51.376;10.874;2024-02-15T00:23:03;7.72;;;4.32;;
46713;SDS011;32445;51.376;10.874;2024-02-15T00:28:06;6.07;;;4.27;;
46713;SDS011;32445;51.376;10.874;2024-02-15T00:33:07;6.15;;;4.30;;
46713;SDS011;32445;51.376;10.874;2024-02-15T00:38:07;5.90;;;4.27;;
46713;SDS011;32445;51.376;10.874;2024-02-15T00:43:08;6.10;;;3.50;;
46713;SDS011;32445;51.376;10.874;2024-02-15T00:48:08;5.67;;;3.57;;
46713;SDS011;32445;51.376;10.874;2024-02-15T00:53:10;6.13;;;4.25;;
46713;SDS011;32445;51.376;10.874;2024-02-15T00:58:10;8.10;;;4.23;;
46713;SDS011;32445;51.376;10.874;2024-02-15T01:03:10;7.20;;;4.73;;
46713;SDS011;32445;51.376;10.874;2024-02-15T01:08:11;7.33;;;4.90;;
46713;SDS011;32445;51.376;10.874;2024-02-15T01:13:11;7.67;;;4.60;;
46713;SDS011;32445;51.376;10.874;2024-02-15T01:18:12;7.05;;;4.38;;
46713;SDS011;32445;51.376;10.874;2024-02-15T01:23:12;6.73;;;3.80;;
46713;SDS011;32445;51.376;10.874;2024-02-15T01:28:12;7.87;;;5.10;;
46713;SDS011;32445;51.376;10.874;2024-02-15T01:33:13;12.87;;;6.17;;
46713;SDS011;32445;51.376;10.874;2024-02-15T01:38:13;8.30;;;4.77;;
46713;SDS011;32445;51.376;10.874;2024-02-15T01:43:15;9.68;;;5.40;;
46713;SDS011;32445;51.376;10.874;2024-02-15T01:48:15;7.60;;;5.10;;
46713;SDS011;32445;51.376;10.874;2024-02-15T01:53:16;6.33;;;4.40;;
46713;SDS011;32445;51.376;10.874;2024-02-15T01:58:17;8.88;;;5.10;;
46713;SDS011;32445;51.376;10.874;2024-02-15T02:03:19;8.05;;;4.80;;
46713;SDS011;32445;51.376;10.874;2024-02-15T02:08:21;8.70;;;5.07;;
46713;SDS011;32445;51.376;10.874;2024-02-15T02:13:22;6.07;;;3.90;;
46713;SDS011;32445;51.376;10.874;2024-02-15T02:18:23;7.15;;;4.53;;
46713;SDS011;32445;51.376;10.874;2024-02-15T02:23:25;6.40;;;3.50;;
46713;SDS011;32445;51.376;10.874;2024-02-15T02:28:29;5.43;;;3.50;;
46713;SDS011;32445;51.376;10.874;2024-02-15T02:33:29;8.65;;;5.20;;
46713;SDS011;32445;51.376;10.874;2024-02-15T02:38:29;7.83;;;4.97;;
46713;SDS011;32445;51.376;10.874;2024-02-15T02:43:30;7.47;;;4.83;;
46713;SDS011;32445;51.376;10.874;2024-02-15T02:48:30;8.40;;;5.03;;
46713;SDS011;32445;51.376;10.874;2024-02-15T02:53:31;7.22;;;4.00;;
46713;SDS011;32445;51.376;10.874;2024-02-15T02:58:31;6.87;;;4.10;;
46713;SDS011;32445;51.376;10.874;2024-02-15T03:03:32;8.43;;;4.07;;
46713;SDS011;32445;51.376;10.874;2024-02-15T03:08:32;8.10;;;5.00;;
46713;SDS011;32445;51.376;10.874;2024-02-15T03:13:32;7.83;;;4.63;;
46713;SDS011;32445;51.376;10.874;2024-02-15T03:18:33;8.13;;;4.80;;
46713;SDS011;32445;51.376;10.874;2024-02-15T03:23:33;8.50;;;4.67;;
46713;SDS011;32445;51.376;10.874;2024-02-15T03:28:33;6.57;;;4.37;;
46713;SDS011;32445;51.376;10.874;2024-02-15T03:33:36;7.65;;;4.70;;
46713;SDS011;32445;51.376;10.874;2024-02-15T03:38:37;10.10;;;4.93;;
46713;SDS011;32445;51.376;10.874;2024-02-15T03:43:37;5.70;;;3.97;;
46713;SDS011;32445;51.376;10.874;2024-02-15T03:48:39;6.90;;;3.90;;
46713;SDS011;32445;51.376;10.874;2024-02-15T03:53:39;7.10;;;4.47;;
46713;SDS011;32445;51.376;10.874;2024-02-15T03:58:39;9.10;;;4.77;;
46713;SDS011;32445;51.376;10.874;2024-02-15T04:03:40;5.40;;;3.77;;
46713;SDS011;32445;51.376;10.874;2024-02-15T04:08:40;9.80;;;4.37;;
46713;SDS011;32445;51.376;10.874;2024-02-15T04:13:40;7.33;;;4.53;;
46713;SDS011;32445;51.376;10.874;2024-02-15T04:18:42;9.82;;;4.85;;
46713;SDS011;32445;51.376;10.874;2024-02-15T04:23:45;7.32;;;4.65;;
46713;SDS011;32445;51.376;10.874;2024-02-15T04:28:46;11.50;;;4.88;;
46713;SDS011;32445;51.376;10.874;2024-02-15T04:33:53;9.63;;;5.53;;
46713;SDS011;32445;51.376;10.874;2024-02-15T04:38:54;8.50;;;4.43;;
46713;SDS011;32445;51.376;10.874;2024-02-15T04:43:54;8.57;;;4.63;;
46713;SDS011;32445;51.376;10.874;2024-02-15T04:48:55;9.50;;;5.03;;
46713;SDS011;32445;51.376;10.874;2024-02-15T04:53:57;9.82;;;5.22;;
46713;SDS011;32445;51.376;10.874;2024-02-15T04:58:58;8.23;;;4.50;;
46713;SDS011;32445;51.376;10.874;2024-02-15T05:03:58;7.63;;;4.13;;
46713;SDS011;32445;51.376;10.874;2024-02-15T05:08:59;5.47;;;3.63;;
46713;SDS011;32445;51.376;10.874;2024-02-15T05:14:07;7.55;;;4.40;;
46713;SDS011;32445;51.376;10.874;2024-02-15T05:19:08;9.63;;;5.30;;
46713;SDS011;32445;51.376;10.874;2024-02-15T05:24:15;8.43;;;5.18;;
46713;SDS011;32445;51.376;10.874;2024-02-15T05:29:16;7.40;;;4.22;;
46713;SDS011;32445;51.376;10.874;2024-02-15T05:34:16;9.30;;;4.27;;
46713;SDS011;32445;51.376;10.874;2024-02-15T05:39:17;8.18;;;4.78;;
46713;SDS011;32445;51.376;10.874;2024-02-15T05:44:20;7.80;;;4.10;;
46713;SDS011;32445;51.376;10.874;2024-02-15T05:49:20;8.37;;;4.90;;
46713;SDS011;32445;51.376;10.874;2024-02-15T05:54:23;7.50;;;4.20;;
46713;SDS011;32445;51.376;10.874;2024-02-15T05:59:24;7.53;;;5.15;;
46713;SDS011;32445;51.376;10.874;2024-02-15T06:04:25;9.40;;;4.80;;
46713;SDS011;32445;51.376;10.874;2024-02-15T06:09:27;7.85;;;5.13;;
46713;SDS011;32445;51.376;10.874;2024-02-15T06:14:30;7.80;;;4.22;;
46713;SDS011;32445;51.376;10.874;2024-02-15T06:19:31;9.48;;;5.47;;
46713;SDS011;32445;51.376;10.874;2024-02-15T06:24:32;9.73;;;5.15;;
46713;SDS011;32445;51.376;10.874;2024-02-15T06:29:34;8.00;;;4.97;;
46713;SDS011;32445;51.376;10.874;2024-02-15T06:34:52;11.25;;;6.35;;
46713;SDS011;32445;51.376;10.874;2024-02-15T06:40:11;13.38;;;5.95;;
46713;SDS011;32445;51.376;10.874;2024-02-15T06:45:13;13.93;;;6.13;;
46713;SDS011;32445;51.376;10.874;2024-02-15T06:50:13;10.37;;;5.30;;
46713;SDS011;32445;51.376;10.874;2024-02-15T06:55:14;11.82;;;5.35;;
46713;SDS011;32445;51.376;10.874;2024-02-15T07:00:15;10.07;;;5.53;;
46713;SDS011;32445;51.376;10.874;2024-02-15T07:05:15;11.80;;;6.43;;
46713;SDS011;32445;51.376;10.874;2024-02-15T07:10:17;12.80;;;6.57;;
46713;SDS011;32445;51.376;10.874;2024-02-15T07:15:17;13.90;;;6.73;;
46713;SDS011;32445;51.376;10.874;2024-02-15T07:20:18;9.70;;;5.20;;
46713;SDS011;32445;51.376;10.874;2024-02-15T07:25:18;13.63;;;5.70;;
46713;SDS011;32445;51.376;10.874;2024-02-15T07:30:18;9.63;;;5.27;;
46713;SDS011;32445;51.376;10.874;2024-02-15T07:35:19;11.27;;;6.30;;
46713;SDS011;32445;51.376;10.874;2024-02-15T07:40:20;10.47;;;5.00;;
46713;SDS011;32445;51.376;10.874;2024-02-15T07:45:22;10.88;;;5.13;;
46713;SDS011;32445;51.376;10.874;2024-02-15T07:50:22;12.63;;;4.93;;
46713;SDS011;32445;51.376;10.874;2024-02-15T07:55:23;9.33;;;4.77;;
46713;SDS011;32445;51.376;10.874;2024-02-15T08:00:24;9.38;;;4.78;;
46713;SDS011;32445;51.376;10.874;2024-02-15T08:05:27;15.77;;;4.10;;
46713;SDS011;32445;51.376;10.874;2024-02-15T08:10:27;11.93;;;4.93;;
46713;SDS011;32445;51.376;10.874;2024-02-15T08:15:28;14.23;;;5.18;;
46713;SDS011;32445;51.376;10.874;2024-02-15T08:20:29;9.20;;;5.40;;
46713;SDS011;32445;51.376;10.874;2024-02-15T08:25:31;9.15;;;4.43;;
46713;SDS011;32445;51.376;10.874;2024-02-15T08:30:34;8.00;;;3.72;;
46713;SDS011;32445;51.376;10.874;2024-02-15T08:35:35;8.50;;;4.60;;
46713;SDS011;32445;51.376;10.874;2024-02-15T08:40:36;11.68;;;4.70;;
46713;SDS011;32445;51.376;10.874;2024-02-15T08:45:36;9.90;;;4.80;;
46713;SDS011;32445;51.376;10.874;2024-02-15T08:50:37;10.20;;;5.37;;
46713;SDS011;32445;51.376;10.874;2024-02-15T08:55:38;9.13;;;4.75;;
46713;SDS011;32445;51.376;10.874;2024-02-15T09:00:39;13.10;;;6.13;;
46713;SDS011;32445;51.376;10.874;2024-02-15T09:05:44;17.20;;;5.40;;
46713;SDS011;32445;51.376;10.874;2024-02-15T09:10:44;12.23;;;5.37;;
46713;SDS011;32445;51.376;10.874;2024-02-15T09:15:45;9.40;;;5.63;;
46713;SDS011;32445;51.376;10.874;2024-02-15T09:20:47;11.52;;;5.43;;
46713;SDS011;32445;51.376;10.874;2024-02-15T09:25:49;11.95;;;6.13;;
46713;SDS011;32445;51.376;10.874;2024-02-15T09:30:54;10.65;;;5.13;;
46713;SDS011;32445;51.376;10.874;2024-02-15T09:35:59;7.80;;;4.47;;
46713;SDS011;32445;51.376;10.874;2024-02-15T09:40:59;10.83;;;4.40;;
46713;SDS011;32445;51.376;10.874;2024-02-15T09:46:00;8.75;;;4.50;;
46713;SDS011;32445;51.376;10.874;2024-02-15T09:51:04;12.63;;;5.05;;
46713;SDS011;32445;51.376;10.874;2024-02-15T09:56:07;10.95;;;4.47;;
46713;SDS011;32445;51.376;10.874;2024-02-15T10:01:08;7.18;;;3.75;;
46713;SDS011;32445;51.376;10.874;2024-02-15T10:06:11;7.97;;;4.05;;
46713;SDS011;32445;51.376;10.874;2024-02-15T10:11:11;8.97;;;3.47;;
46713;SDS011;32445;51.376;10.874;2024-02-15T10:16:18;7.57;;;4.32;;
46713;SDS011;32445;51.376;10.874;2024-02-15T10:21:28;5.70;;;3.33;;
46713;SDS011;32445;51.376;10.874;2024-02-15T10:26:30;6.28;;;3.33;;
46713;SDS011;32445;51.376;10.874;2024-02-15T10:31:32;7.00;;;3.55;;
46713;SDS011;32445;51.376;10.874;2024-02-15T10:36:33;5.50;;;3.13;;
46713;SDS011;32445;51.376;10.874;2024-02-15T10:41:34;7.10;;;3.47;;
46713;SDS011;32445;51.376;10.874;2024-02-15T10:46:36;6.68;;;3.05;;
46713;SDS011;32445;51.376;10.874;2024-02-15T10:51:36;9.37;;;3.40;;
46713;SDS011;32445;51.376;10.874;2024-02-15T10:56:43;6.93;;;3.55;;
46713;SDS011;32445;51.376;10.874;2024-02-15T11:01:48;7.57;;;3.03;;
46713;SDS011;32445;51.376;10.874;2024-02-15T11:06:55;5.22;;;2.92;;
46713;SDS011;32445;51.376;10.874;2024-02-15T11:11:56;4.68;;;2.47;;
46713;SDS011;32445;51.376;10.874;2024-02-15T11:16:59;3.85;;;2.47;;
46713;SDS011;32445;51.376;10.874;2024-02-15T11:22:10;9.18;;;3.17;;
46713;SDS011;32445;51.376;10.874;2024-02-15T11:27:31;6.18;;;2.25;;
46713;SDS011;32445;51.376;10.874;2024-02-15T11:32:41;7.13;;;2.55;;
46713;SDS011;32445;51.376;10.874;2024-02-15T11:37:50;5.88;;;2.65;;
46713;SDS011;32445;51.376;10.874;2024-02-15T11:42:53;8.48;;;2.60;;
46713;SDS011;32445;51.376;10.874;2024-02-15T11:47:55;5.03;;;2.65;;
46713;SDS011;32445;51.376;10.874;2024-02-15T11:53:01;9.40;;;3.55;;
46713;SDS011;32445;51.376;10.874;2024-02-15T11:58:11;7.53;;;2.75;;
46713;SDS011;32445;51.376;10.874;2024-02-15T12:03:22;4.55;;;2.60;;
46713;SDS011;32445;51.376;10.874;2024-02-15T12:08:45;4.15;;;2.65;;
46713;SDS011;32445;51.376;10.874;2024-02-15T12:14:05;4.35;;;2.35;;
46713;SDS011;32445;51.376;10.874;2024-02-15T12:19:24;5.85;;;2.92;;
46713;SDS011;32445;51.376;10.874;2024-02-15T12:24:24;6.93;;;3.13;;
46713;SDS011;32445;51.376;10.874;2024-02-15T12:29:26;6.40;;;2.67;;
46713;SDS011;32445;51.376;10.874;2024-02-15T12:34:29;5.13;;;2.58;;
46713;SDS011;32445;51.376;10.874;2024-02-15T12:39:29;5.77;;;2.70;;
46713;SDS011;32445;51.376;10.874;2024-02-15T12:44:31;5.13;;;2.33;;
46713;SDS011;32445;51.376;10.874;2024-02-15T12:49:34;6.28;;;2.80;;
46713;SDS011;32445;51.376;10.874;2024-02-15T12:54:34;6.38;;;2.70;;
46713;SDS011;32445;51.376;10.874;2024-02-15T12:59:35;5.33;;;2.57;;
46713;SDS011;32445;51.376;10.874;2024-02-15T13:04:37;4.35;;;2.40;;
46713;SDS011;32445;51.376;10.874;2024-02-15T13:09:38;5.72;;;2.03;;
46713;SDS011;32445;51.376;10.874;2024-02-15T13:14:40;5.65;;;2.30;;
46713;SDS011;32445;51.376;10.874;2024-02-15T13:19:44;5.43;;;2.90;;
46713;SDS011;32445;51.376;10.874;2024-02-15T13:24:49;6.15;;;2.00;;
46713;SDS011;32445;51.376;10.874;2024-02-15T13:29:52;5.40;;;2.10;;
46713;SDS011;32445;51.376;10.874;2024-02-15T13:34:53;4.22;;;2.33;;
46713;SDS011;32445;51.376;10.874;2024-02-15T13:39:56;3.67;;;2.03;;
46713;SDS011;32445;51.376;10.874;2024-02-15T13:44:56;4.82;;;2.00;;
46713;SDS011;32445;51.376;10.874;2024-02-15T13:49:57;5.07;;;2.10;;
46713;SDS011;32445;51.376;10.874;2024-02-15T13:54:57;5.07;;;2.00;;
46713;SDS011;32445;51.376;10.874;2024-02-15T13:59:57;6.77;;;2.37;;
46713;SDS011;32445;51.376;10.874;2024-02-15T14:04:58;4.35;;;2.15;;
46713;SDS011;32445;51.376;10.874;2024-02-15T14:09:58;7.00;;;2.10;;
46713;SDS011;32445;51.376;10.874;2024-02-15T14:14:59;5.47;;;2.60;;
46713;SDS011;32445;51.376;10.874;2024-02-15T14:19:59;6.38;;;2.22;;
46713;SDS011;32445;51.376;10.874;2024-02-15T14:25:01;9.10;;;4.25;;
46713;SDS011;32445;51.376;10.874;2024-02-15T14:30:01;11.97;;;5.70;;
46713;SDS011;32445;51.376;10.874;2024-02-15T14:35:20;5.65;;;2.40;;
46713;SDS011;32445;51.376;10.874;2024-02-15T14:40:20;4.63;;;1.83;;
46713;SDS011;32445;51.376;10.874;2024-02-15T14:45:21;4.07;;;2.30;;
46713;SDS011;32445;51.376;10.874;2024-02-15T14:50:25;4.43;;;3.10;;
46713;SDS011;32445;51.376;10.874;2024-02-15T14:55:25;4.63;;;2.15;;
46713;SDS011;32445;51.376;10.874;2024-02-15T15:00:28;4.43;;;2.40;;
46713;SDS011;32445;51.376;10.874;2024-02-15T15:05:28;6.55;;;2.60;;
46713;SDS011;32445;51.376;10.874;2024-02-15T15:10:48;4.07;;;2.25;;
46713;SDS011;32445;51.376;10.874;2024-02-15T15:16:07;3.90;;;2.00;;
46713;SDS011;32445;51.376;10.874;2024-02-15T15:21:07;3.85;;;2.38;;
46713;SDS011;32445;51.376;10.874;2024-02-15T15:26:08;7.03;;;2.73;;
46713;SDS011;32445;51.376;10.874;2024-02-15T15:31:11;5.15;;;2.88;;
46713;SDS011;32445;51.376;10.874;2024-02-15T15:36:11;4.47;;;2.03;;
46713;SDS011;32445;51.376;10.874;2024-02-15T15:41:12;27.77;;;11.13;;
46713;SDS011;32445;51.376;10.874;2024-02-15T15:46:13;7.07;;;2.30;;
46713;SDS011;32445;51.376;10.874;2024-02-15T15:51:14;9.52;;;4.80;;
46713;SDS011;32445;51.376;10.874;2024-02-15T15:56:15;4.53;;;2.45;;
46713;SDS011;32445;51.376;10.874;2024-02-15T16:01:16;3.10;;;1.70;;
46713;SDS011;32445;51.376;10.874;2024-02-15T16:06:19;4.90;;;1.67;;
46713;SDS011;32445;51.376;10.874;2024-02-15T16:11:19;5.83;;;2.43;;
46713;SDS011;32445;51.376;10.874;2024-02-15T16:16:19;2.60;;;1.90;;
46713;SDS011;32445;51.376;10.874;2024-02-15T16:21:20;6.47;;;2.00;;
46713;SDS011;32445;51.376;10.874;2024-02-15T16:26:20;5.90;;;2.03;;
46713;SDS011;32445;51.376;10.874;2024-02-15T16:31:21;6.53;;;2.53;;
46713;SDS011;32445;51.376;10.874;2024-02-15T16:36:21;6.40;;;2.40;;
46713;SDS011;32445;51.376;10.874;2024-02-15T16:41:22;3.85;;;2.40;;
46713;SDS011;32445;51.376;10.874;2024-02-15T16:46:25;6.10;;;2.35;;
46713;SDS011;32445;51.376;10.874;2024-02-15T16:51:26;6.18;;;2.63;;
46713;SDS011;32445;51.376;10.874;2024-02-15T16:56:26;6.18;;;2.42;;
46713;SDS011;32445;51.376;10.874;2024-02-15T17:01:28;8.73;;;2.20;;
46713;SDS011;32445;51.376;10.874;2024-02-15T17:06:28;6.73;;;3.23;;
46713;SDS011;32445;51.376;10.874;2024-02-15T17:11:29;8.77;;;3.28;;
46713;SDS011;32445;51.376;10.874;2024-02-15T17:16:29;7.17;;;3.40;;
46713;SDS011;32445;51.376;10.874;2024-02-15T17:21:29;6.77;;;4.07;;
46713;SDS011;32445;51.376;10.874;2024-02-15T17:26:32;7.82;;;4.47;;
46713;SDS011;32445;51.376;10.874;2024-02-15T17:31:32;10.03;;;4.60;;
46713;SDS011;32445;51.376;10.874;2024-02-15T17:36:33;10.27;;;3.92;;
46713;SDS011;32445;51.376;10.874;2024-02-15T17:41:34;7.28;;;4.30;;
46713;SDS011;32445;51.376;10.874;2024-02-15T17:46:34;9.55;;;4.57;;
46713;SDS011;32445;51.376;10.874;2024-02-15T17:51:35;8.97;;;4.50;;
46713;SDS011;32445;51.376;10.874;2024-02-15T17:56:35;9.00;;;4.60;;
46713;SDS011;32445;51.376;10.874;2024-02-15T18:01:36;8.00;;;4.00;;
46713;SDS011;32445;51.376;10.874;2024-02-15T18:06:39;7.55;;;3.85;;
46713;SDS011;32445;51.376;10.874;2024-02-15T18:11:39;8.33;;;4.40;;
46713;SDS011;32445;51.376;10.874;2024-02-15T18:16:39;12.47;;;6.93;;
46713;SDS011;32445;51.376;10.874;2024-02-15T18:21:40;11.40;;;5.00;;
46713;SDS011;32445;51.376;10.874;2024-02-15T18:26:40;8.80;;;4.63;;
46713;SDS011;32445;51.376;10.874;2024-02-15T18:31:41;8.25;;;5.05;;
46713;SDS011;32445;51.376;10.874;2024-02-15T18:36:41;11.27;;;7.17;;
46713;SDS011;32445;51.376;10.874;2024-02-15T18:41:42;10.77;;;4.63;;
46713;SDS011;32445;51.376;10.874;2024-02-15T18:46:46;7.78;;;4.68;;
46713;SDS011;32445;51.376;10.874;2024-02-15T18:51:48;8.82;;;4.50;;
46713;SDS011;32445;51.376;10.874;2024-02-15T18:56:48;7.57;;;4.33;;
46713;SDS011;32445;51.376;10.874;2024-02-15T19:01:50;7.65;;;3.67;;
46713;SDS011;32445;51.376;10.874;2024-02-15T19:06:51;6.70;;;3.80;;
46713;SDS011;32445;51.376;10.874;2024-02-15T19:11:51;9.37;;;4.57;;
46713;SDS011;32445;51.376;10.874;2024-02-15T19:16:53;8.43;;;3.38;;
46713;SDS011;32445;51.376;10.874;2024-02-15T19:21:54;7.72;;;3.10;;
46713;SDS011;32445;51.376;10.874;2024-02-15T19:26:54;3.40;;;2.00;;
46713;SDS011;32445;51.376;10.874;2024-02-15T19:31:55;8.00;;;2.80;;
46713;SDS011;32445;51.376;10.874;2024-02-15T19:36:55;4.00;;;2.03;;
46713;SDS011;32445;51.376;10.874;2024-02-15T19:42:01;4.32;;;2.28;;
46713;SDS011;32445;51.376;10.874;2024-02-15T19:47:02;7.40;;;2.42;;
46713;SDS011;32445;51.376;10.874;2024-02-15T19:52:04;6.07;;;2.95;;
46713;SDS011;32445;51.376;10.874;2024-02-15T19:57:09;7.05;;;2.28;;
46713;SDS011;32445;51.376;10.874;2024-02-15T20:02:09;5.57;;;3.33;;
46713;SDS011;32445;51.376;10.874;2024-02-15T20:07:09;10.13;;;4.20;;
46713;SDS011;32445;51.376;10.874;2024-02-15T20:12:10;7.40;;;3.03;;
46713;SDS011;32445;51.376;10.874;2024-02-15T20:17:11;8.65;;;3.65;;
46713;SDS011;32445;51.376;10.874;2024-02-15T20:22:13;6.85;;;3.70;;
46713;SDS011;32445;51.376;10.874;2024-02-15T20:27:14;6.25;;;3.42;;
46713;SDS011;32445;51.376;10.874;2024-02-15T20:32:19;7.63;;;3.05;;
46713;SDS011;32445;51.376;10.874;2024-02-15T20:37:21;7.97;;;3.20;;
46713;SDS011;32445;51.376;10.874;2024-02-15T20:42:23;5.45;;;2.88;;
46713;SDS011;32445;51.376;10.874;2024-02-15T20:47:23;7.13;;;2.50;;
46713;SDS011;32445;51.376;10.874;2024-02-15T20:52:24;7.13;;;2.78;;
46713;SDS011;32445;51.376;10.874;2024-02-15T20:57:24;5.33;;;2.67;;
46713;SDS011;32445;51.376;10.874;2024-02-15T21:02:26;5.65;;;2.97;;
46713;SDS011;32445;51.376;10.874;2024-02-15T21:07:30;7.95;;;4.13;;
46713;SDS011;32445;51.376;10.874;2024-02-15T21:12:31;22.57;;;11.23;;
46713;SDS011;32445;51.376;10.874;2024-02-15T21:17:32;17.15;;;10.15;;
46713;SDS011;32445;51.376;10.874;2024-02-15T21:22:32;12.60;;;6.87;;
46713;SDS011;32445;51.376;10.874;2024-02-15T21:27:33;10.15;;;5.40;;
46713;SDS011;32445;51.376;10.874;2024-02-15T21:32:34;12.82;;;5.88;;
46713;SDS011;32445;51.376;10.874;2024-02-15T21:37:34;9.90;;;5.30;;
46713;SDS011;32445;51.376;10.874;2024-02-15T21:42:35;9.60;;;5.22;;
46713;SDS011;32445;51.376;10.874;2024-02-15T21:47:36;12.73;;;5.20;;
46713;SDS011;32445;51.376;10.874;2024-02-15T21:52:37;8.63;;;4.57;;
46713;SDS011;32445;51.376;10.874;2024-02-15T21:57:37;8.33;;;4.40;;
46713;SDS011;32445;51.376;10.874;2024-02-15T22:02:37;8.27;;;4.57;;
46713;SDS011;32445;51.376;10.874;2024-02-15T22:07:38;8.98;;;4.07;;
46713;SDS011;32445;51.376;10.874;2024-02-15T22:12:39;8.00;;;4.30;;
46713;SDS011;32445;51.376;10.874;2024-02-15T22:17:40;11.65;;;3.78;;
46713;SDS011;32445;51.376;10.874;2024-02-15T22:22:41;8.30;;;4.03;;
46713;SDS011;32445;51.376;10.874;2024-02-15T22:27:44;9.55;;;4.47;;
46713;SDS011;32445;51.376;10.874;2024-02-15T22:32:45;6.17;;;3.73;;
46713;SDS011;32445;51.376;10.874;2024-02-15T22:37:45;8.93;;;3.90;;
46713;SDS011;32445;51.376;10.874;2024-02-15T22:42:47;7.38;;;3.63;;
46713;SDS011;32445;51.376;10.874;2024-02-15T22:47:47;6.60;;;3.67;;
46713;SDS011;32445;51.376;10.874;2024-02-15T22:52:48;6.97;;;2.90;;
46713;SDS011;32445;51.376;10.874;2024-02-15T22:57:50;6.82;;;2.88;;
46713;SDS011;32445;51.376;10.874;2024-02-15T23:02:50;6.50;;;3.27;;
46713;SDS011;32445;51.376;10.874;2024-02-15T23:07:51;6.38;;;3.20;;
46713;SDS011;32445;51.376;10.874;2024-02-15T23:12:51;6.10;;;3.23;;
46713;SDS011;32445;51.376;10.874;2024-02-15T23:17:51;6.60;;;3.20;;
46713;SDS011;32445;51.376;10.874;2024-02-15T23:22:52;7.77;;;3.20;;
46713;SDS011;32445;51.376;10.874;2024-02-15T23:27:52;8.97;;;4.50;;
46713;SDS011;32445;51.376;10.874;2024-02-15T23:32:53;10.07;;;4.30;;
46713;SDS011;32445;51.376;10.874;2024-02-15T23:37:55;8.75;;;4.88;;
46713;SDS011;32445;51.376;10.874;2024-02-15T23:43:14;12.25;;;4.28;;
46713;SDS011;32445;51.376;10.874;2024-02-15T23:48:14;10.13;;;4.97;;
46713;SDS011;32445;51.376;10.874;2024-02-15T23:53:14;11.43;;;5.23;;
46713;SDS011;32445;51.376;10.874;2024-02-15T23:58:15;10.27;;;4.97;;
